createdAt,value
2022-11-09T00:01:05.866Z,4.70
2022-11-09T00:03:33.336Z,4.80
2022-11-09T00:06:01.192Z,4.80
2022-11-09T00:08:29.681Z,4.80
2022-11-09T00:11:07.696Z,4.90
2022-11-09T00:13:43.034Z,4.90
2022-11-09T00:16:14.345Z,4.80
2022-11-09T00:18:47.522Z,4.70
2022-11-09T00:21:24.418Z,4.60
2022-11-09T00:23:52.677Z,4.60
2022-11-09T00:26:21.141Z,4.50
2022-11-09T00:28:49.881Z,4.60
2022-11-09T00:31:21.387Z,4.80
2022-11-09T00:33:56.930Z,4.80
2022-11-09T00:36:27.688Z,4.90
2022-11-09T00:38:58.578Z,5.00
2022-11-09T00:41:27.315Z,5.10
2022-11-09T00:43:55.100Z,4.90
2022-11-09T00:46:23.279Z,4.90
2022-11-09T00:48:51.020Z,4.80
2022-11-09T00:51:19.230Z,4.80
2022-11-09T00:53:48.597Z,4.90
2022-11-09T00:56:16.356Z,5.00
2022-11-09T00:58:43.814Z,5.00
2022-11-09T01:01:15.370Z,5.10
2022-11-09T01:03:44.940Z,5.10
2022-11-09T01:06:23.384Z,5.10
2022-11-09T01:08:51.796Z,4.90
2022-11-09T01:11:21.522Z,4.70
2022-11-09T01:13:49.419Z,4.70
2022-11-09T01:16:21.516Z,4.70
2022-11-09T01:18:53.401Z,5.00
2022-11-09T01:21:20.872Z,5.10
2022-11-09T01:23:48.295Z,5.20
2022-11-09T01:26:16.581Z,5.20
2022-11-09T01:28:44.774Z,5.20
2022-11-09T01:31:16.799Z,5.10
2022-11-09T01:33:45.043Z,5.00
2022-11-09T01:36:17.053Z,4.90
2022-11-09T01:38:44.541Z,5.00
2022-11-09T01:41:19.956Z,5.20
2022-11-09T01:44:14.854Z,5.40
2022-11-09T01:47:04.015Z,5.50
2022-11-09T01:49:44.291Z,5.50
2022-11-09T01:52:18.360Z,5.40
2022-11-09T01:54:58.100Z,5.40
2022-11-09T01:57:40.277Z,5.30
2022-11-09T02:00:13.332Z,5.20
2022-11-09T02:02:47.516Z,5.10
2022-11-09T02:05:21.429Z,5.20
2022-11-09T02:07:50.282Z,5.30
2022-11-09T02:10:39.475Z,5.40
2022-11-09T02:13:08.835Z,5.50
2022-11-09T02:15:40.258Z,5.40
2022-11-09T02:18:12.248Z,5.40
2022-11-09T02:20:49.432Z,5.40
2022-11-09T02:23:17.942Z,5.30
2022-11-09T02:25:51.842Z,5.20
2022-11-09T02:28:19.895Z,5.20
2022-11-09T02:30:52.143Z,5.10
2022-11-09T02:33:19.961Z,5.20
2022-11-09T02:35:47.669Z,5.20
2022-11-09T02:38:15.953Z,5.20
2022-11-09T02:40:51.926Z,5.10
2022-11-09T02:43:20.817Z,5.20
2022-11-09T02:45:48.561Z,5.20
2022-11-09T02:48:15.991Z,5.10
2022-11-09T02:50:43.416Z,5.10
2022-11-09T02:53:10.872Z,5.00
2022-11-09T02:55:38.253Z,5.00
2022-11-09T02:58:05.744Z,5.10
2022-11-09T03:00:33.187Z,5.10
2022-11-09T03:03:00.725Z,5.10
2022-11-09T03:05:28.166Z,5.10
2022-11-09T03:07:56.802Z,5.10
2022-11-09T03:10:24.250Z,5.00
2022-11-09T03:12:51.684Z,5.00
2022-11-09T03:15:19.247Z,5.00
2022-11-09T03:17:46.690Z,5.00
2022-11-09T03:20:14.253Z,5.00
2022-11-09T03:22:41.701Z,5.00
2022-11-09T03:25:09.725Z,5.10
2022-11-09T03:27:37.150Z,5.10
2022-11-09T03:30:05.178Z,5.00
2022-11-09T03:32:32.692Z,4.90
2022-11-09T03:35:00.091Z,4.90
2022-11-09T03:37:27.545Z,4.80
2022-11-09T03:39:54.995Z,4.80
2022-11-09T03:42:22.377Z,4.60
2022-11-09T03:44:49.842Z,4.70
2022-11-09T03:47:17.318Z,4.80
2022-11-09T03:49:44.706Z,4.90
2022-11-09T03:52:12.140Z,4.80
2022-11-09T03:54:39.555Z,4.80
2022-11-09T03:57:06.979Z,4.70
2022-11-09T03:59:34.425Z,4.70
2022-11-09T04:02:01.860Z,4.60
2022-11-09T04:04:29.337Z,4.50
2022-11-09T04:06:56.859Z,4.40
2022-11-09T04:09:24.328Z,4.50
2022-11-09T04:11:51.715Z,4.40
2022-11-09T04:14:19.132Z,4.50
2022-11-09T04:16:46.510Z,4.50
2022-11-09T04:19:14.041Z,4.60
2022-11-09T04:21:41.443Z,4.60
2022-11-09T04:24:08.947Z,4.50
2022-11-09T04:26:36.444Z,4.40
2022-11-09T04:29:04.421Z,4.40
2022-11-09T04:31:31.825Z,4.40
2022-11-09T04:33:59.315Z,4.40
2022-11-09T04:36:26.736Z,4.30
2022-11-09T04:38:54.129Z,4.40
2022-11-09T04:41:21.638Z,4.30
2022-11-09T04:43:49.048Z,4.10
2022-11-09T04:46:16.502Z,4.10
2022-11-09T04:48:44.571Z,3.90
2022-11-09T04:51:12.097Z,4.10
2022-11-09T04:53:40.377Z,4.20
2022-11-09T04:56:08.843Z,4.30
2022-11-09T04:58:36.525Z,4.30
2022-11-09T05:01:12.594Z,4.40
2022-11-09T05:03:40.646Z,4.30
2022-11-09T05:06:26.969Z,4.40
2022-11-09T05:08:55.708Z,4.40
2022-11-09T05:11:23.908Z,4.40
2022-11-09T05:13:51.831Z,4.40
2022-11-09T05:16:20.351Z,4.50
2022-11-09T05:18:48.048Z,4.40
2022-11-09T05:21:15.808Z,4.50
2022-11-09T05:24:01.636Z,4.50
2022-11-09T05:26:41.820Z,4.50
2022-11-09T05:29:11.967Z,4.50
2022-11-09T05:31:40.475Z,4.50
2022-11-09T05:34:08.383Z,4.50
2022-11-09T05:36:35.810Z,4.50
2022-11-09T05:39:03.288Z,4.40
2022-11-09T05:41:30.874Z,4.60
2022-11-09T05:43:58.275Z,4.60
2022-11-09T05:46:26.443Z,4.60
2022-11-09T05:48:53.873Z,4.60
2022-11-09T05:51:21.433Z,4.70
2022-11-09T05:53:48.877Z,4.60
2022-11-09T05:56:16.620Z,4.50
2022-11-09T05:58:44.719Z,4.50
2022-11-09T06:01:16.152Z,4.50
2022-11-09T06:03:44.513Z,4.50
2022-11-09T06:06:14.730Z,4.60
2022-11-09T06:08:42.711Z,4.60
2022-11-09T06:11:15.705Z,4.50
2022-11-09T06:13:49.468Z,4.50
2022-11-09T06:16:17.010Z,4.50
2022-11-09T06:18:44.458Z,4.50
2022-11-09T06:21:12.259Z,4.50
2022-11-09T06:23:39.664Z,4.50
2022-11-09T06:26:11.233Z,4.50
2022-11-09T06:28:40.811Z,4.50
2022-11-09T06:31:14.349Z,4.50
2022-11-09T06:33:42.406Z,4.50
2022-11-09T06:36:11.540Z,4.40
2022-11-09T06:38:39.636Z,4.40
2022-11-09T06:41:07.439Z,4.40
2022-11-09T06:43:34.895Z,4.50
2022-11-09T06:46:06.300Z,4.50
2022-11-09T06:48:33.852Z,4.50
2022-11-09T06:51:02.537Z,4.60
2022-11-09T06:53:31.314Z,4.50
2022-11-09T06:56:04.617Z,4.50
2022-11-09T06:58:32.895Z,4.60
2022-11-09T07:01:00.484Z,4.60
2022-11-09T07:03:27.887Z,4.60
2022-11-09T07:05:55.386Z,4.60
2022-11-09T07:08:22.819Z,4.70
2022-11-09T07:10:50.201Z,4.70
2022-11-09T07:13:17.807Z,4.70
2022-11-09T07:15:45.387Z,4.80
2022-11-09T07:18:13.388Z,4.90
2022-11-09T07:20:41.000Z,5.00
2022-11-09T07:23:08.503Z,5.00
2022-11-09T07:25:36.522Z,5.10
2022-11-09T07:28:09.438Z,5.20
2022-11-09T07:30:37.473Z,5.20
2022-11-09T07:33:18.194Z,5.30
2022-11-09T07:35:46.950Z,5.30
2022-11-09T07:38:19.807Z,5.50
2022-11-09T07:40:47.420Z,5.60
2022-11-09T07:43:15.064Z,5.70
2022-11-09T07:45:42.567Z,5.70
2022-11-09T07:48:12.171Z,5.80
2022-11-09T07:50:40.972Z,6.00
2022-11-09T07:53:12.031Z,6.30
2022-11-09T07:55:39.806Z,6.60
2022-11-09T07:58:14.603Z,6.80
2022-11-09T08:00:44.065Z,7.00
2022-11-09T08:03:11.817Z,7.20
2022-11-09T08:05:40.172Z,7.50
2022-11-09T08:08:11.452Z,7.80
2022-11-09T08:10:40.064Z,7.90
2022-11-09T08:13:13.899Z,8.10
2022-11-09T08:15:42.210Z,8.20
2022-11-09T08:18:19.302Z,8.30
2022-11-09T08:20:47.620Z,8.40
2022-11-09T08:23:18.266Z,8.30
2022-11-09T08:25:45.772Z,8.40
2022-11-09T08:28:16.360Z,8.50
2022-11-09T08:30:45.728Z,8.60
2022-11-09T08:33:14.337Z,8.80
2022-11-09T08:35:42.735Z,8.80
2022-11-09T08:38:10.414Z,8.90
2022-11-09T08:40:37.955Z,9.00
2022-11-09T08:43:08.318Z,9.10
2022-11-09T08:45:38.917Z,9.30
2022-11-09T08:48:07.953Z,9.60
2022-11-09T08:50:37.005Z,9.90
2022-11-09T08:53:05.776Z,10.00
2022-11-09T08:55:33.369Z,10.20
2022-11-09T08:58:03.703Z,10.40
2022-11-09T09:00:31.751Z,10.40
2022-11-09T09:02:59.344Z,10.50
2022-11-09T09:05:26.853Z,10.70
2022-11-09T09:07:54.293Z,10.80
2022-11-09T09:10:21.744Z,10.80
2022-11-09T09:12:49.147Z,10.80
2022-11-09T09:15:16.736Z,10.90
2022-11-09T09:17:44.310Z,10.90
2022-11-09T09:20:12.202Z,10.90
2022-11-09T09:22:40.394Z,11.00
2022-11-09T09:25:08.785Z,11.10
2022-11-09T09:27:36.587Z,11.00
2022-11-09T09:30:05.112Z,11.00
2022-11-09T09:32:32.601Z,11.00
2022-11-09T09:35:00.050Z,10.90
2022-11-09T09:37:27.559Z,10.80
2022-11-09T09:39:55.056Z,10.90
2022-11-09T09:42:32.182Z,11.00
2022-11-09T09:45:18.592Z,11.20
2022-11-09T09:48:28.620Z,11.20
2022-11-09T09:51:04.964Z,11.30
2022-11-09T09:53:45.564Z,11.30
2022-11-09T09:56:29.162Z,11.30
2022-11-09T09:59:40.524Z,11.40
2022-11-09T10:02:30.814Z,11.50
2022-11-09T10:05:03.064Z,11.60
2022-11-09T10:07:56.309Z,11.60
2022-11-09T10:10:46.556Z,11.80
2022-11-09T10:13:49.074Z,11.80
2022-11-09T10:16:59.992Z,11.80
2022-11-09T10:19:55.506Z,11.80
2022-11-09T10:22:52.539Z,11.80
2022-11-09T10:25:50.312Z,11.90
2022-11-09T10:28:17.897Z,12.20
2022-11-09T10:30:46.416Z,12.30
2022-11-09T10:33:20.969Z,12.50
2022-11-09T10:35:59.317Z,12.60
2022-11-09T10:38:38.968Z,12.80
2022-11-09T10:41:28.846Z,13.00
2022-11-09T10:43:56.295Z,13.00
2022-11-09T10:46:24.752Z,13.20
2022-11-09T10:48:54.418Z,13.20
2022-11-09T10:51:43.255Z,13.30
2022-11-09T10:54:28.196Z,13.10
2022-11-09T10:57:17.650Z,13.10
2022-11-09T10:59:51.441Z,13.20
2022-11-09T11:02:25.389Z,13.40
2022-11-09T11:05:18.740Z,13.70
2022-11-09T11:07:47.035Z,13.70
2022-11-09T11:10:17.278Z,13.90
2022-11-09T11:12:53.644Z,13.90
2022-11-09T11:15:41.107Z,13.80
2022-11-09T11:18:27.668Z,13.70
2022-11-09T11:21:18.660Z,13.80
2022-11-09T11:24:11.350Z,13.90
2022-11-09T11:26:59.809Z,14.00
2022-11-09T11:29:36.216Z,14.20
2022-11-09T11:32:03.991Z,14.30
2022-11-09T11:34:58.388Z,14.40
2022-11-09T11:38:14.475Z,14.50
2022-11-09T11:41:01.184Z,14.50
2022-11-09T11:43:58.967Z,14.20
2022-11-09T11:46:47.606Z,14.30
2022-11-09T11:49:26.744Z,14.30
2022-11-09T11:52:23.518Z,14.20
2022-11-09T11:55:18.733Z,14.40
2022-11-09T11:58:16.094Z,14.30
2022-11-09T12:01:13.245Z,14.50
2022-11-09T12:03:56.651Z,14.40
2022-11-09T12:06:45.334Z,14.60
2022-11-09T12:09:12.754Z,15.00
2022-11-09T12:12:15.506Z,15.10
2022-11-09T12:15:15.962Z,15.10
2022-11-09T12:18:07.509Z,15.50
2022-11-09T12:20:42.890Z,16.00
2022-11-09T12:23:33.834Z,16.20
2022-11-09T12:26:28.339Z,16.70
2022-11-09T12:29:16.682Z,17.20
2022-11-09T12:32:17.456Z,17.50
2022-11-09T12:35:15.845Z,18.10
2022-11-09T12:38:20.599Z,18.30
2022-11-09T12:41:13.980Z,17.80
2022-11-09T12:44:14.486Z,17.60
2022-11-09T12:46:51.636Z,17.60
2022-11-09T12:49:40.461Z,16.90
2022-11-09T12:52:13.548Z,16.90
2022-11-09T12:54:46.195Z,16.90
2022-11-09T12:57:27.897Z,17.00
2022-11-09T12:59:58.656Z,16.70
2022-11-09T13:02:32.059Z,16.60
2022-11-09T13:05:06.227Z,16.60
2022-11-09T13:07:47.144Z,16.90
2022-11-09T13:10:38.174Z,17.20
2022-11-09T13:13:26.032Z,16.80
2022-11-09T13:16:20.624Z,16.50
2022-11-09T13:18:52.075Z,16.70
2022-11-09T13:21:22.586Z,17.40
2022-11-09T13:24:01.610Z,16.80
2022-11-09T13:26:33.059Z,16.50
2022-11-09T13:29:15.562Z,16.80
2022-11-09T13:32:01.798Z,16.70
2022-11-09T13:34:47.953Z,16.80
2022-11-09T13:37:43.373Z,16.20
2022-11-09T13:40:32.468Z,16.00
2022-11-09T13:43:08.663Z,15.80
2022-11-09T13:45:57.821Z,15.50
2022-11-09T13:48:30.592Z,15.20
2022-11-09T13:51:17.015Z,15.20
2022-11-09T13:54:02.798Z,15.40
2022-11-09T13:56:41.385Z,15.60
2022-11-09T13:59:24.031Z,14.80
2022-11-09T14:01:54.400Z,14.20
2022-11-09T14:04:36.625Z,13.90
2022-11-09T14:07:27.758Z,13.50
2022-11-09T14:10:13.441Z,13.40
2022-11-09T14:12:59.270Z,13.20
2022-11-09T14:15:51.977Z,13.00
2022-11-09T14:18:31.642Z,12.90
2022-11-09T14:21:12.739Z,12.70
2022-11-09T14:23:40.549Z,12.50
2022-11-09T14:26:23.023Z,12.40
2022-11-09T14:28:50.619Z,12.20
2022-11-09T14:31:29.616Z,12.00
2022-11-09T14:34:07.940Z,11.80
2022-11-09T14:36:35.840Z,11.70
2022-11-09T14:39:22.273Z,11.70
2022-11-09T14:41:50.836Z,11.60
2022-11-09T14:44:29.824Z,11.60
2022-11-09T14:46:57.930Z,11.50
2022-11-09T14:49:27.160Z,11.50
2022-11-09T14:51:54.944Z,11.40
2022-11-09T14:54:26.629Z,11.40
2022-11-09T14:56:55.786Z,11.30
2022-11-09T14:59:32.331Z,11.20
2022-11-09T15:02:21.731Z,11.10
2022-11-09T15:04:59.930Z,11.00
2022-11-09T15:07:31.853Z,11.00
2022-11-09T15:10:06.216Z,10.90
2022-11-09T15:12:35.537Z,10.80
2022-11-09T15:15:07.593Z,10.50
2022-11-09T15:17:44.418Z,10.40
2022-11-09T15:20:14.969Z,10.40
2022-11-09T15:22:57.548Z,10.40
2022-11-09T15:25:36.826Z,10.30
2022-11-09T15:28:13.031Z,10.20
2022-11-09T15:30:53.982Z,10.10
2022-11-09T15:33:26.749Z,10.00
2022-11-09T15:36:00.671Z,10.00
2022-11-09T15:39:02.582Z,10.00
2022-11-09T15:41:31.846Z,10.10
2022-11-09T15:43:59.507Z,10.10
2022-11-09T15:46:37.962Z,10.20
2022-11-09T15:49:27.389Z,10.30
2022-11-09T15:51:56.508Z,10.20
2022-11-09T15:54:24.672Z,10.10
2022-11-09T15:56:52.780Z,10.00
2022-11-09T15:59:27.454Z,9.90
2022-11-09T16:01:54.983Z,9.90
2022-11-09T16:04:22.540Z,9.80
2022-11-09T16:06:50.051Z,9.60
2022-11-09T16:09:17.840Z,9.60
2022-11-09T16:11:45.286Z,9.70
2022-11-09T16:14:12.757Z,9.70
2022-11-09T16:16:40.180Z,9.60
2022-11-09T16:19:07.593Z,9.60
2022-11-09T16:21:35.055Z,9.50
2022-11-09T16:24:02.488Z,9.50
2022-11-09T16:26:30.336Z,9.50
2022-11-09T16:28:58.257Z,9.50
2022-11-09T16:31:48.017Z,9.50
2022-11-09T16:34:13.106Z,9.50
2022-11-09T16:36:47.935Z,9.60
2022-11-09T16:39:17.375Z,9.60
2022-11-09T16:41:48.673Z,9.60
2022-11-09T16:44:21.053Z,9.60
2022-11-09T16:46:49.027Z,9.50
2022-11-09T16:49:16.524Z,9.40
2022-11-09T16:51:44.164Z,9.20
2022-11-09T16:54:11.610Z,9.00
2022-11-09T16:56:39.014Z,8.80
2022-11-09T16:59:06.517Z,8.70
2022-11-09T17:01:34.040Z,8.70
2022-11-09T17:04:01.552Z,8.80
2022-11-09T17:06:29.056Z,8.80
2022-11-09T17:08:57.253Z,8.90
2022-11-09T17:11:25.261Z,9.00
2022-11-09T17:14:00.119Z,9.00
2022-11-09T17:16:27.937Z,9.00
2022-11-09T17:18:57.117Z,9.00
2022-11-09T17:21:27.332Z,9.00
2022-11-09T17:23:56.586Z,9.00
2022-11-09T17:26:25.288Z,8.90
2022-11-09T17:28:53.074Z,8.90
2022-11-09T17:31:23.389Z,8.90
2022-11-09T17:33:50.800Z,8.90
2022-11-09T17:36:29.945Z,8.80
2022-11-09T17:39:07.283Z,8.80
2022-11-09T17:41:38.650Z,8.80
2022-11-09T17:44:08.936Z,8.70
2022-11-09T17:46:36.455Z,8.70
2022-11-09T17:49:09.605Z,8.50
2022-11-09T17:51:38.340Z,8.30
2022-11-09T17:54:06.463Z,8.00
2022-11-09T17:56:34.817Z,7.80
2022-11-09T17:59:05.631Z,7.70
2022-11-09T18:01:39.502Z,7.80
2022-11-09T18:04:10.738Z,7.90
2022-11-09T18:06:39.109Z,7.90
2022-11-09T18:11:54.488Z,7.80
2022-11-09T18:14:22.076Z,7.80
2022-11-09T18:16:49.466Z,7.80
2022-11-09T18:19:17.097Z,7.60
2022-11-09T18:21:46.257Z,7.30
2022-11-09T18:24:14.817Z,7.40
2022-11-09T18:26:42.374Z,7.40
2022-11-09T18:29:09.980Z,7.50
2022-11-09T18:31:37.500Z,7.60
2022-11-09T18:34:05.506Z,7.50
2022-11-09T18:36:33.033Z,7.30
2022-11-09T18:39:03.228Z,7.00
2022-11-09T18:41:30.904Z,6.90
2022-11-09T18:43:58.655Z,6.90
2022-11-09T18:46:30.341Z,7.00
2022-11-09T18:48:57.733Z,6.90
2022-11-09T18:51:25.293Z,6.70
2022-11-09T18:53:52.885Z,6.50
2022-11-09T18:56:24.680Z,6.70
2022-11-09T18:58:55.200Z,6.90
2022-11-09T19:01:24.889Z,7.00
2022-11-09T19:03:58.750Z,7.10
2022-11-09T19:06:27.684Z,7.00
2022-11-09T19:09:13.850Z,7.00
2022-11-09T19:11:41.440Z,6.90
2022-11-09T19:14:11.235Z,6.70
2022-11-09T19:16:38.944Z,6.60
2022-11-09T19:19:06.559Z,6.50
2022-11-09T19:21:53.364Z,6.40
2022-11-09T19:24:24.562Z,6.30
2022-11-09T19:26:52.229Z,6.30
2022-11-09T19:29:19.733Z,6.20
2022-11-09T19:31:48.761Z,6.20
2022-11-09T19:34:21.829Z,6.20
2022-11-09T19:36:49.802Z,6.20
2022-11-09T19:39:17.739Z,6.10
2022-11-09T19:41:45.257Z,6.00
2022-11-09T19:44:18.171Z,5.90
2022-11-09T19:46:46.138Z,6.10
2022-11-09T19:49:14.694Z,6.20
2022-11-09T19:51:43.373Z,6.20
2022-11-09T19:54:12.636Z,6.20
2022-11-09T19:56:40.229Z,6.20
2022-11-09T19:59:07.900Z,6.20
2022-11-09T20:01:35.644Z,6.20
2022-11-09T20:04:07.679Z,6.30
2022-11-09T20:06:39.507Z,6.50
2022-11-09T20:09:07.457Z,6.50
2022-11-09T20:11:53.570Z,6.50
2022-11-09T20:14:21.382Z,6.60
2022-11-09T20:16:49.356Z,6.60
2022-11-09T20:19:16.895Z,6.80
2022-11-09T20:21:45.020Z,6.90
2022-11-09T20:24:12.946Z,6.90
2022-11-09T20:26:41.009Z,6.90
2022-11-09T20:29:09.034Z,6.70
2022-11-09T20:31:37.580Z,6.60
2022-11-09T20:34:05.455Z,6.50
2022-11-09T20:36:33.120Z,6.50
2022-11-09T20:39:00.897Z,6.50
2022-11-09T20:41:28.998Z,6.60
2022-11-09T20:43:56.430Z,6.60
2022-11-09T20:46:24.679Z,6.50
2022-11-09T20:48:55.192Z,6.50
2022-11-09T20:51:24.418Z,6.50
2022-11-09T20:53:52.294Z,6.40
2022-11-09T20:56:21.004Z,6.30
2022-11-09T20:58:48.694Z,6.20
2022-11-09T21:01:25.013Z,6.20
2022-11-09T21:03:53.741Z,6.20
2022-11-09T21:06:21.906Z,6.40
2022-11-09T21:08:56.010Z,6.40
2022-11-09T21:11:28.788Z,6.50
2022-11-09T21:13:56.627Z,6.60
2022-11-09T21:16:24.527Z,6.70
2022-11-09T21:18:52.158Z,6.70
2022-11-09T21:21:23.002Z,6.80
2022-11-09T21:24:09.509Z,6.90
2022-11-09T21:26:55.304Z,6.90
2022-11-09T21:29:43.509Z,6.90
2022-11-09T21:32:12.312Z,6.80
2022-11-09T21:34:39.815Z,6.80
2022-11-09T21:37:07.340Z,6.80
2022-11-09T21:39:35.120Z,6.70
2022-11-09T21:42:03.905Z,6.50
2022-11-09T21:44:33.521Z,6.40
2022-11-09T21:47:01.982Z,6.40
2022-11-09T21:49:29.655Z,6.50
2022-11-09T21:51:57.742Z,6.80
2022-11-09T21:54:25.697Z,6.90
2022-11-09T21:56:53.544Z,7.00
2022-11-09T21:59:21.213Z,7.10
2022-11-09T22:01:50.262Z,7.10
2022-11-09T22:04:17.912Z,7.20
2022-11-09T22:06:45.744Z,7.10
2022-11-09T22:09:18.053Z,7.20
2022-11-09T22:12:04.279Z,7.20
2022-11-09T22:14:50.076Z,7.20
2022-11-09T22:17:17.726Z,7.20
2022-11-09T22:20:03.921Z,7.10
2022-11-09T22:22:33.767Z,7.10
2022-11-09T22:25:01.198Z,7.10
2022-11-09T22:27:31.683Z,7.20
2022-11-09T22:29:59.345Z,7.30
2022-11-09T22:32:26.824Z,7.40
2022-11-09T22:34:54.262Z,7.50
2022-11-09T22:37:21.809Z,7.70
2022-11-09T22:39:49.357Z,7.90
2022-11-09T22:42:16.838Z,8.00
2022-11-09T22:44:44.291Z,8.20
2022-11-09T22:47:11.795Z,8.40
2022-11-09T22:49:39.269Z,8.60
2022-11-09T22:52:06.742Z,8.80
2022-11-09T22:54:34.173Z,9.00
2022-11-09T22:57:01.649Z,9.20
2022-11-09T22:59:29.102Z,9.30
2022-11-09T23:01:56.622Z,9.40
2022-11-09T23:04:24.035Z,9.50
2022-11-09T23:06:51.555Z,9.50
2022-11-09T23:09:19.092Z,9.40
2022-11-09T23:11:46.498Z,9.40
2022-11-09T23:14:13.968Z,9.30
2022-11-09T23:16:41.398Z,9.30
2022-11-09T23:19:08.797Z,9.20
2022-11-09T23:21:37.882Z,9.10
2022-11-09T23:24:27.788Z,9.10
2022-11-09T23:26:55.199Z,9.10
2022-11-09T23:29:22.591Z,9.10
2022-11-09T23:31:49.978Z,9.10
2022-11-09T23:34:17.603Z,9.00
2022-11-09T23:36:45.023Z,9.00
2022-11-09T23:39:12.446Z,8.90
2022-11-09T23:41:40.327Z,8.90
2022-11-09T23:44:07.847Z,8.80
2022-11-09T23:46:35.223Z,8.70
2022-11-09T23:49:02.764Z,8.70
2022-11-09T23:51:30.145Z,8.80
2022-11-09T23:53:57.561Z,8.80
2022-11-09T23:56:25.030Z,8.80
2022-11-09T23:58:52.430Z,8.70
